Time;durP1;ratioP1;P1;durP2;ratioP2;P2;SDS_P1;SDS_P2;PMS_P1;PMS_P2;Temp;Humidity;BMP_temperature;BMP_pressure;BME280_temperature;BME280_humidity;BME280_pressure;Samples;Min_cycle;Max_cycle;Signal;HPM_P1;HPM_P2
2023/12/04 00:03:43;;;;;;;19.40;12.20;;;;;;;-1.63;58.09;100670.06;7779554;32;37818;-78
2023/12/04 00:07:59;;;;;;;24.58;13.27;;;;;;;-1.66;57.91;100675.75;7772545;32;39178;-77
2023/12/04 00:12:16;;;;;;;16.62;10.82;;;;;;;-1.57;57.69;100674.75;7767353;32;40835;-78
2023/12/04 00:16:35;;;;;;;18.08;11.52;;;;;;;-1.59;57.19;100670.56;7766507;32;38689;-78
2023/12/04 00:20:52;;;;;;;17.50;11.45;;;;;;;-1.73;57.80;100664.06;7766607;32;36502;-78
2023/12/04 00:25:08;;;;;;;20.10;11.20;;;;;;;-1.55;57.46;100664.72;7766476;32;39977;-78
2023/12/04 00:29:25;;;;;;;20.10;11.60;;;;;;;-1.68;57.86;100666.25;7766323;32;40852;-78
2023/12/04 00:33:41;;;;;;;16.60;10.73;;;;;;;-1.41;56.85;100659.66;7766303;32;38115;-78
2023/12/04 00:37:57;;;;;;;22.55;11.25;;;;;;;-1.32;56.50;100653.28;7765541;32;37855;-77
2023/12/04 00:42:13;;;;;;;19.30;10.80;;;;;;;-1.67;57.51;100658.06;7766293;32;40028;-77
2023/12/04 00:46:30;;;;;;;19.37;11.30;;;;;;;-1.38;56.90;100657.47;7766170;32;41094;-77
2023/12/04 00:50:46;;;;;;;21.65;11.10;;;;;;;-1.66;57.14;100666.91;7766048;32;38530;-77
2023/12/04 00:55:03;;;;;;;19.10;11.05;;;;;;;-1.59;57.28;100662.53;7765982;32;37126;-78
2023/12/04 00:59:19;;;;;;;20.88;11.55;;;;;;;-1.15;56.14;100664.75;7768832;32;39451;-78
2023/12/04 01:03:37;;;;;;;19.48;11.90;;;;;;;-0.98;55.11;100662.84;7792901;32;39914;-78
2023/12/04 01:07:53;;;;;;;16.92;11.43;;;;;;;-1.04;55.22;100656.31;7793089;32;38834;-79
2023/12/04 01:12:10;;;;;;;19.00;11.50;;;;;;;-1.26;55.83;100667.78;7784941;32;37725;-78
2023/12/04 01:16:26;;;;;;;20.52;11.18;;;;;;;-1.23;55.65;100662.09;7765850;32;39939;-78
2023/12/04 01:20:42;;;;;;;20.70;11.82;;;;;;;-1.45;55.91;100664.53;7765979;32;39756;-78
2023/12/04 01:24:58;;;;;;;19.52;11.20;;;;;;;-1.63;56.29;100659.38;7765702;32;38686;-77
2023/12/04 01:29:15;;;;;;;17.23;11.60;;;;;;;-1.39;55.95;100660.31;8025210;26;37148;-80
2023/12/04 01:33:31;;;;;;;19.33;10.82;;;;;;;-1.29;55.66;100654.75;7792896;32;39162;-79
2023/12/04 01:37:48;;;;;;;15.88;10.77;;;;;;;-1.23;55.43;100654.06;7792515;32;40872;-79
2023/12/04 01:42:04;;;;;;;22.98;12.57;;;;;;;-1.23;55.24;100654.91;7792687;32;38123;-80
2023/12/04 01:46:21;;;;;;;18.85;11.30;;;;;;;-1.56;55.94;100652.34;7792823;32;37272;-80
2023/12/04 01:50:38;;;;;;;15.48;10.70;;;;;;;-1.66;56.08;100658.88;7778615;32;39964;-79
2023/12/04 01:54:54;;;;;;;18.42;10.57;;;;;;;-1.33;55.43;100660.47;7792681;32;39904;-79
2023/12/04 01:59:11;;;;;;;23.00;11.68;;;;;;;-1.80;56.37;100668.44;7792450;32;37819;-80
2023/12/04 02:03:27;;;;;;;17.05;10.70;;;;;;;-1.45;55.57;100651.16;7792375;32;35386;-80
2023/12/04 02:07:44;;;;;;;17.25;11.30;;;;;;;-1.70;56.16;100656.53;7792421;32;39284;-80
2023/12/04 02:12:01;;;;;;;20.00;11.25;;;;;;;-1.81;57.08;100670.28;7792281;32;40580;-80
2023/12/04 02:16:18;;;;;;;19.37;12.15;;;;;;;-1.66;57.00;100670.41;7792499;32;38672;-80
2023/12/04 02:20:35;;;;;;;16.87;11.40;;;;;;;-1.77;56.77;100676.12;7792495;32;36879;-80
2023/12/04 02:24:52;;;;;;;17.25;10.43;;;;;;;-1.55;55.97;100670.06;7792223;32;40065;-80
2023/12/04 02:29:11;;;;;;;21.65;11.75;;;;;;;-1.41;55.49;100670.38;7792077;32;39938;-79
2023/12/04 02:33:29;;;;;;;20.95;11.85;;;;;;;-1.47;55.64;100674.53;7778686;32;38060;-79
2023/12/04 02:37:46;;;;;;;18.77;11.18;;;;;;;-1.71;56.16;100684.31;7792076;32;37116;-79
2023/12/04 02:42:03;;;;;;;21.55;12.20;;;;;;;-1.58;55.84;100673.06;7792170;32;39882;-79
2023/12/04 02:46:19;;;;;;;20.30;12.05;;;;;;;-1.49;55.69;100675.72;7791853;32;40005;-79
2023/12/04 02:50:36;;;;;;;17.73;10.73;;;;;;;-1.55;55.92;100677.25;7791781;32;38237;-79
2023/12/04 02:54:52;;;;;;;17.73;11.38;;;;;;;-1.61;56.20;100684.09;7791629;32;37072;-79
2023/12/04 02:59:08;;;;;;;19.15;11.75;;;;;;;-1.97;57.00;100681.81;7791406;32;39231;-79
2023/12/04 03:03:24;;;;;;;19.33;11.68;;;;;;;-1.91;56.79;100683.00;7791162;32;41264;-79
2023/12/04 03:07:41;;;;;;;20.48;11.50;;;;;;;-1.93;56.71;100688.50;7791426;32;38503;-79
2023/12/04 03:11:57;;;;;;;19.15;11.55;;;;;;;-1.91;56.61;100699.84;7791360;32;37786;-79
2023/12/04 03:16:19;;;;;;;24.27;11.48;;;;;;;-1.80;56.77;100701.34;7790798;32;39344;-76
2023/12/04 03:20:35;;;;;;;17.77;10.93;;;;;;;-1.73;56.69;100702.31;7791176;32;40020;-77
2023/12/04 03:24:52;;;;;;;18.92;11.10;;;;;;;-1.70;56.60;100690.47;7791081;32;38716;-77
2023/12/04 03:29:08;;;;;;;17.20;10.60;;;;;;;-1.70;56.92;100695.81;7790874;32;37909;-77
2023/12/04 03:33:25;;;;;;;18.25;11.02;;;;;;;-1.81;57.12;100710.38;7790999;32;39166;-77
2023/12/04 03:37:41;;;;;;;19.77;12.02;;;;;;;-1.99;58.09;100697.19;7790745;32;39954;-78
2023/12/04 03:41:58;;;;;;;20.27;11.68;;;;;;;-1.94;57.95;100702.03;7790752;32;38147;-76
2023/12/04 03:46:14;;;;;;;18.65;11.75;;;;;;;-1.92;57.97;100708.84;7790277;32;37881;-75
2023/12/04 03:50:31;;;;;;;22.25;12.75;;;;;;;-1.78;57.50;100704.66;7790368;32;39106;-75
2023/12/04 03:54:47;;;;;;;17.77;11.68;;;;;;;-1.79;57.96;100697.69;7789976;32;39625;-75
2023/12/04 03:59:03;;;;;;;19.80;12.43;;;;;;;-1.89;58.42;100710.38;7790190;32;37962;-76
2023/12/04 04:03:20;;;;;;;22.05;12.43;;;;;;;-1.79;58.28;100719.06;7790037;32;37235;-78
2023/12/04 04:07:36;;;;;;;20.88;11.10;;;;;;;-1.80;58.75;100713.88;7790013;32;39142;-75
2023/12/04 04:11:52;;;;;;;19.23;11.02;;;;;;;-1.86;59.02;100706.53;7790853;32;40712;-75
2023/12/04 04:16:15;;;;;;;19.58;11.48;;;;;;;-1.79;58.50;100700.34;7793765;32;37793;-77
2023/12/04 04:20:31;;;;;;;38.40;18.33;;;;;;;-1.47;57.51;100693.25;7793726;32;37962;-77
2023/12/04 04:24:48;;;;;;;31.30;15.75;;;;;;;-1.67;57.30;100695.50;7794067;32;37801;-76
2023/12/04 04:29:05;;;;;;;18.62;12.13;;;;;;;-1.53;61.42;100681.41;7793531;32;40828;-76
2023/12/04 04:33:21;;;;;;;23.00;13.65;;;;;;;-1.67;60.45;100684.78;7793390;32;38386;-76
2023/12/04 04:37:37;;;;;;;21.77;12.88;;;;;;;-1.41;59.05;100678.38;7793526;32;37918;-76
2023/12/04 04:41:56;;;;;;;20.62;12.07;;;;;;;-1.69;58.37;100676.12;7793510;32;39720;-76
2023/12/04 04:46:12;;;;;;;20.88;11.27;;;;;;;-1.49;57.59;100665.84;7792777;32;40745;-76
2023/12/04 04:50:29;;;;;;;20.90;12.20;;;;;;;-1.64;57.33;100665.72;7793422;32;37724;-75
2023/12/04 04:54:46;;;;;;;20.20;11.80;;;;;;;-1.98;57.45;100669.47;7793295;32;38035;-76
2023/12/04 04:59:02;;;;;;;21.92;11.32;;;;;;;-1.98;57.50;100682.00;7792937;32;39950;-76
2023/12/04 05:03:18;;;;;;;19.52;12.60;;;;;;;-2.27;57.67;100686.81;7793164;32;39929;-76
2023/12/04 05:07:36;;;;;;;19.92;12.15;;;;;;;-1.81;57.00;100693.47;7793086;32;36825;-76
2023/12/04 05:11:53;;;;;;;21.12;12.35;;;;;;;-1.90;57.67;100706.88;7793045;32;36935;-76
2023/12/04 05:16:10;;;;;;;21.73;12.10;;;;;;;-2.05;58.40;100705.88;7793127;32;39353;-76
2023/12/04 05:20:27;;;;;;;21.37;12.55;;;;;;;-1.89;57.79;100700.50;7793031;32;39765;-76
2023/12/04 05:24:43;;;;;;;18.70;11.95;;;;;;;-1.98;57.54;100698.03;7792385;32;37682;-76
2023/12/04 05:28:59;;;;;;;22.83;12.98;;;;;;;-2.17;57.60;100696.53;7792709;32;37897;-76
2023/12/04 05:33:16;;;;;;;17.83;11.38;;;;;;;-2.30;58.12;100684.47;7792726;32;39346;-76
2023/12/04 05:37:32;;;;;;;32.90;15.13;;;;;;;-2.09;57.31;100691.16;7792697;32;40770;-76
2023/12/04 05:41:48;;;;;;;22.33;12.00;;;;;;;-2.29;56.79;100688.81;7792093;32;38884;-76
2023/12/04 05:46:05;;;;;;;22.98;13.27;;;;;;;-2.23;56.46;100684.66;7792725;32;37838;-76
2023/12/04 05:50:21;;;;;;;19.15;11.20;;;;;;;-2.73;57.59;100688.25;7792580;32;39270;-76
2023/12/04 05:54:37;;;;;;;18.98;11.50;;;;;;;-2.73;57.82;100690.91;7792742;32;40068;-76
2023/12/04 05:58:54;;;;;;;19.20;11.77;;;;;;;-2.35;56.84;100696.66;7792515;32;37785;-76
2023/12/04 06:03:10;;;;;;;18.58;11.38;;;;;;;-2.52;57.27;100701.13;7792435;32;37868;-76
2023/12/04 06:07:26;;;;;;;17.67;10.52;;;;;;;-2.58;58.24;100702.63;7792549;32;40073;-76
2023/12/04 06:11:43;;;;;;;22.67;12.20;;;;;;;-2.53;58.59;100700.31;7791641;32;39712;-76
2023/12/04 06:16:02;;;;;;;24.12;14.07;;;;;;;-2.43;57.78;100699.31;7792225;32;38026;-76
2023/12/04 06:20:19;;;;;;;35.65;17.55;;;;;;;-2.30;57.70;100705.00;7792064;32;36852;-76
2023/12/04 06:24:35;;;;;;;20.58;12.43;;;;;;;-2.17;57.19;100709.88;7791870;32;39185;-76
2023/12/04 06:28:52;;;;;;;18.90;11.18;;;;;;;-2.27;57.04;100707.38;7791640;32;40861;-76
2023/12/04 06:33:08;;;;;;;18.65;11.32;;;;;;;-2.40;57.09;100699.81;7791448;32;38105;-77
2023/12/04 06:37:25;;;;;;;19.27;11.93;;;;;;;-2.60;57.17;100699.28;7790900;32;36801;-77
2023/12/04 06:41:42;;;;;;;25.27;14.68;;;;;;;-2.56;57.11;100710.47;7792209;32;39341;-76
2023/12/04 06:45:59;;;;;;;19.85;11.90;;;;;;;-2.77;57.50;100730.44;7791906;32;39710;-76
2023/12/04 06:50:16;;;;;;;17.87;10.68;;;;;;;-2.44;56.85;100725.19;7791368;32;38780;-76
2023/12/04 06:54:32;;;;;;;18.62;11.20;;;;;;;-2.38;56.93;100732.56;7791737;32;37782;-76
2023/12/04 06:58:48;;;;;;;21.42;11.90;;;;;;;-2.57;57.35;100735.50;7791697;32;40175;-76
2023/12/04 07:03:05;;;;;;;17.70;10.60;;;;;;;-2.49;57.83;100728.34;7791514;32;39626;-76
2023/12/04 07:07:21;;;;;;;21.45;11.75;;;;;;;-2.40;57.75;100741.72;7791473;32;38172;-76
2023/12/04 07:11:37;;;;;;;20.40;11.70;;;;;;;-2.42;58.22;100749.91;7791368;32;37891;-75
2023/12/04 07:15:54;;;;;;;21.37;11.95;;;;;;;-2.43;58.54;100737.56;7791055;32;39905;-75
2023/12/04 07:20:11;;;;;;;20.85;11.35;;;;;;;-2.38;58.43;100745.06;7791123;32;40758;-75
2023/12/04 07:24:28;;;;;;;21.10;12.52;;;;;;;-1.97;57.82;100740.59;7791011;32;38797;-75
2023/12/04 07:28:44;;;;;;;19.05;12.27;;;;;;;-1.95;57.93;100745.78;7790802;32;37056;-75
2023/12/04 07:33:00;;;;;;;27.13;13.55;;;;;;;-1.88;57.93;100738.75;7790845;32;39422;-76
2023/12/04 07:37:17;;;;;;;27.55;14.57;;;;;;;-1.51;56.64;100742.75;7790205;32;40612;-75
2023/12/04 07:41:33;;;;;;;30.10;13.98;;;;;;;-2.09;57.74;100745.47;7790418;32;38526;-75
2023/12/04 07:45:50;;;;;;;17.35;11.88;;;;;;;-1.74;57.56;100747.97;7790847;32;37208;-75
2023/12/04 07:50:07;;;;;;;21.15;11.90;;;;;;;-1.65;56.97;100746.97;7794076;32;39326;-77
2023/12/04 07:54:25;;;;;;;21.50;12.40;;;;;;;-1.58;57.30;100753.28;7793299;32;39706;-75
2023/12/04 07:58:42;;;;;;;26.70;13.43;;;;;;;-1.10;56.94;100753.38;7786903;32;38748;-75
2023/12/04 08:02:58;;;;;;;27.02;13.82;;;;;;;-1.07;57.09;100746.84;7793314;32;36973;-76
2023/12/04 08:07:14;;;;;;;29.80;14.90;;;;;;;-0.88;56.21;100743.78;7791816;32;39530;-75
2023/12/04 08:11:31;;;;;;;22.55;13.20;;;;;;;-0.46;55.69;100741.72;7792547;32;40687;-75
2023/12/04 08:15:47;;;;;;;21.00;12.02;;;;;;;-0.58;55.62;100750.16;7793238;32;38844;-75
2023/12/04 08:20:04;;;;;;;19.10;11.82;;;;;;;-0.44;55.66;100751.25;7792253;32;37314;-74
2023/12/04 08:24:21;;;;;;;22.15;10.93;;;;;;;-0.49;58.28;100742.06;7793316;32;39920;-76
2023/12/04 08:28:41;;;;;;;20.62;11.15;;;;;;;0.12;55.70;100739.47;7791961;32;39898;-81
2023/12/04 08:32:57;;;;;;;17.98;11.18;;;;;;;0.40;54.84;100737.06;7792169;32;38849;-75
2023/12/04 08:37:14;;;;;;;20.83;12.13;;;;;;;0.57;52.90;100743.13;7789285;32;37127;-76
2023/12/04 08:41:30;;;;;;;16.62;11.77;;;;;;;0.27;53.97;100743.03;7792076;32;39990;-76
2023/12/04 08:45:46;;;;;;;19.15;11.50;;;;;;;0.07;53.85;100741.84;7792987;32;40875;-76
2023/12/04 08:50:03;;;;;;;26.50;14.07;;;;;;;0.33;54.52;100745.00;7777816;32;38522;-77
2023/12/04 08:54:19;;;;;;;24.20;13.50;;;;;;;0.53;54.87;100736.44;7778839;32;37954;-76
2023/12/04 08:58:37;;;;;;;25.88;13.77;;;;;;;0.69;55.17;100730.06;7790867;32;39962;-75
2023/12/04 09:02:54;;;;;;;22.80;13.25;;;;;;;0.17;55.28;100731.72;7791176;32;40555;-76
2023/12/04 09:07:23;;;;;;;26.25;13.52;;;;;;;0.78;54.86;100730.81;7761865;32;38687;-76
2023/12/04 09:11:43;;;;;;;23.17;14.05;;;;;;;0.72;54.38;100725.16;7737698;32;36614;-76
2023/12/04 09:16:00;;;;;;;22.75;13.77;;;;;;;0.82;54.76;100734.81;7737442;32;39382;-76
2023/12/04 09:20:16;;;;;;;20.80;12.57;;;;;;;0.92;53.73;100730.00;7738068;32;39753;-76
2023/12/04 09:24:33;;;;;;;23.02;13.43;;;;;;;0.88;54.25;100731.38;7737046;32;38716;-77
2023/12/04 09:28:49;;;;;;;25.70;13.10;;;;;;;1.58;52.92;100724.59;7737732;32;38038;-76
2023/12/04 09:33:07;;;;;;;24.12;14.18;;;;;;;0.85;54.21;100723.72;7735371;32;39923;-76
2023/12/04 09:37:24;;;;;;;24.70;13.55;;;;;;;1.58;52.84;100719.22;7738137;32;40039;-78
2023/12/04 09:41:42;;;;;;;20.95;12.63;;;;;;;1.69;52.07;100712.50;7738139;32;38696;-77
2023/12/04 09:45:59;;;;;;;22.37;13.60;;;;;;;2.34;51.13;100701.72;7736367;32;37763;-79
2023/12/04 09:50:22;;;;;;;23.45;13.75;;;;;;;2.82;51.27;100688.37;7738100;32;40023;-78
2023/12/04 09:54:40;;;;;;;21.00;11.63;;;;;;;3.12;50.26;100678.19;7736177;32;41320;-77
2023/12/04 09:59:00;;;;;;;22.70;11.80;;;;;;;2.91;50.34;100671.00;7736563;32;38735;-77
2023/12/04 10:03:17;;;;;;;19.52;12.43;;;;;;;2.05;51.82;100665.91;7737258;32;37179;-77
2023/12/04 10:07:33;;;;;;;21.58;13.32;;;;;;;2.09;57.43;100669.88;7737446;32;39912;-76
2023/12/04 10:11:56;;;;;;;20.23;12.35;;;;;;;2.40;51.84;100647.97;7737336;32;40868;-78
2023/12/04 10:16:12;;;;;;;20.00;11.55;;;;;;;2.24;52.87;100646.41;7737117;32;37815;-77
2023/12/04 10:20:29;;;;;;;18.92;11.38;;;;;;;3.18;51.24;100633.41;7736145;32;37090;-77
2023/12/04 10:24:46;;;;;;;19.80;11.12;;;;;;;3.54;50.83;100619.63;7737138;32;38956;-78
2023/12/04 10:29:04;;;;;;;21.62;11.32;;;;;;;3.48;49.90;100625.81;7712669;32;40651;-78
2023/12/04 10:33:25;;;;;;;22.00;12.50;;;;;;;3.22;49.67;100621.19;7710462;32;38210;-76
2023/12/04 10:37:42;;;;;;;19.65;11.80;;;;;;;3.85;49.14;100611.97;7710106;32;37132;-76
2023/12/04 10:42:03;;;;;;;16.65;9.32;;;;;;;4.28;48.87;100611.53;7710479;32;39269;-77
2023/12/04 10:46:20;;;;;;;18.83;10.20;;;;;;;4.45;44.77;100604.62;7710157;32;39500;-77
2023/12/04 10:50:38;;;;;;;19.85;12.05;;;;;;;4.80;45.30;100590.81;7709949;32;38000;-78
2023/12/04 10:54:54;;;;;;;15.43;9.13;;;;;;;5.54;44.46;100583.13;7709187;32;37221;-77
2023/12/04 10:59:18;;;;;;;15.60;8.57;;;;;;;6.15;41.22;100572.63;7702635;32;39343;-78
2023/12/04 11:03:56;;;;;;;14.27;8.65;;;;;;;6.49;39.14;100567.72;7720678;32;40021;-78
2023/12/04 11:08:15;;;;;;;16.42;8.98;;;;;;;6.25;38.98;100572.97;7736320;32;38762;-77
2023/12/04 11:12:34;;;;;;;15.43;9.02;;;;;;;6.51;39.09;100576.44;7735114;32;37966;-78
2023/12/04 11:16:57;;;;;;;14.23;8.68;;;;;;;6.62;40.03;100561.31;7736432;32;39391;-78
2023/12/04 11:21:15;;;;;;;17.83;9.77;;;;;;;6.95;37.85;100556.31;7735383;32;41039;-78
2023/12/04 11:25:34;;;;;;;15.43;9.60;;;;;;;7.09;37.30;100551.53;7734614;32;40075;-79
2023/12/04 11:29:51;;;;;;;16.52;8.90;;;;;;;6.48;39.07;100545.19;7736181;32;36674;-79
2023/12/04 11:34:11;;;;;;;16.17;10.40;;;;;;;7.07;38.04;100540.09;7736538;32;39365;-78
2023/12/04 11:38:30;;;;;;;16.50;9.50;;;;;;;7.13;38.85;100528.28;7735766;32;40146;-79
2023/12/04 11:42:46;;;;;;;27.17;16.58;;;;;;;7.38;38.35;100512.91;7734852;32;37290;-78
2023/12/04 11:47:10;;;;;;;24.52;13.18;;;;;;;7.84;36.01;100506.69;7736292;32;37969;-79
2023/12/04 11:51:39;;;;;;;18.80;9.95;;;;;;;8.19;35.89;100500.44;7735256;32;39873;-80
2023/12/04 11:55:57;;;;;;;17.45;9.35;;;;;;;8.24;36.07;100503.28;7735232;32;40868;-80
2023/12/04 12:00:20;;;;;;;17.62;9.70;;;;;;;8.50;36.90;100486.69;7736239;32;37940;-80
2023/12/04 12:04:37;;;;;;;17.00;9.57;;;;;;;8.52;35.91;100504.41;7736212;32;37090;-80
2023/12/04 12:08:55;;;;;;;14.40;8.52;;;;;;;8.86;35.85;100492.81;7736022;32;39307;-80
2023/12/04 12:13:12;;;;;;;15.20;8.77;;;;;;;8.99;34.16;100477.03;7736045;32;39964;-81
2023/12/04 12:17:30;;;;;;;12.55;7.68;;;;;;;8.46;35.29;100467.31;7735899;32;38105;-82
2023/12/04 12:21:49;;;;;;;16.35;7.55;;;;;;;8.69;34.57;100450.09;7735915;32;37809;-81
2023/12/04 12:26:05;;;;;;;13.25;7.55;;;;;;;9.02;34.01;100443.91;7736036;32;38967;-82
2023/12/04 12:30:22;;;;;;;11.80;6.62;;;;;;;9.37;33.51;100437.41;7735406;32;39952;-81
2023/12/04 12:34:38;;;;;;;10.73;6.78;;;;;;;8.86;32.39;100431.09;7736644;32;37952;-81
2023/12/04 12:38:56;;;;;;;13.73;7.90;;;;;;;9.22;32.62;100434.44;7738984;32;36707;-81
2023/12/04 12:43:12;;;;;;;18.12;8.45;;;;;;;8.90;33.03;100426.84;7739435;32;39882;-80
2023/12/04 12:47:29;;;;;;;15.95;8.25;;;;;;;9.37;32.61;100423.81;7739045;32;39548;-80
2023/12/04 12:51:46;;;;;;;17.77;9.35;;;;;;;8.92;33.73;100427.41;7739172;32;37907;-80
2023/12/04 12:56:03;;;;;;;17.40;9.73;;;;;;;8.84;34.13;100433.25;7737000;32;37837;-81
2023/12/04 13:00:20;;;;;;;15.00;9.30;;;;;;;8.76;34.91;100429.03;7738105;32;39548;-81
2023/12/04 13:04:44;;;;;;;18.15;10.02;;;;;;;8.54;34.51;100415.31;7730055;32;41111;-80
2023/12/04 13:09:01;;;;;;;16.90;9.68;;;;;;;8.28;35.10;100417.50;7712158;32;38025;-80
2023/12/04 13:13:17;;;;;;;14.45;9.18;;;;;;;8.14;35.28;100410.72;7712287;32;37443;-80
2023/12/04 13:17:33;;;;;;;22.37;9.73;;;;;;;8.09;35.48;100403.25;7724616;32;39510;-80
2023/12/04 13:21:50;;;;;;;17.50;10.32;;;;;;;8.17;35.41;100396.63;7738978;32;40838;-80
2023/12/04 13:26:10;;;;;;;17.67;9.98;;;;;;;8.10;35.17;100404.09;7738788;32;38499;-80
2023/12/04 13:30:26;;;;;;;19.70;10.75;;;;;;;8.23;34.66;100403.00;7738032;32;37086;-81
2023/12/04 13:34:43;;;;;;;15.13;9.27;;;;;;;8.01;33.99;100395.50;7738196;32;39426;-78
2023/12/04 13:38:59;;;;;;;15.98;9.52;;;;;;;6.56;36.65;100414.84;7738396;32;40886;-79
2023/12/04 13:47:51;;;;;;;16.00;9.07;;;;;;;6.25;37.00;100407.78;7738801;32;36840;-79
2023/12/04 13:52:08;;;;;;;17.23;10.05;;;;;;;5.19;38.69;100413.25;7738613;32;39824;-79
2023/12/04 13:56:35;;;;;;;18.75;9.35;;;;;;;5.17;40.11;100412.63;7738501;32;40044;-79
2023/12/04 14:00:51;;;;;;;16.58;9.68;;;;;;;4.80;40.03;100409.78;7738529;32;38820;-80
2023/12/04 14:05:08;;;;;;;16.87;9.43;;;;;;;4.42;41.23;100410.66;7738534;32;37022;-79
2023/12/04 14:09:24;;;;;;;16.48;9.27;;;;;;;3.86;42.67;100408.59;7738499;32;40147;-80
2023/12/04 14:13:41;;;;;;;17.92;10.20;;;;;;;3.68;42.50;100404.72;7738330;32;39730;-79
2023/12/04 14:17:57;;;;;;;16.75;9.63;;;;;;;3.85;42.48;100412.38;7738216;32;37995;-80
2023/12/04 14:22:14;;;;;;;19.20;10.32;;;;;;;4.01;42.05;100417.28;7738264;32;37142;-79
2023/12/04 14:26:30;;;;;;;20.85;9.93;;;;;;;3.61;43.61;100403.91;7738167;32;39409;-79
2023/12/04 14:30:47;;;;;;;18.45;8.90;;;;;;;3.67;43.87;100403.03;7738017;32;40029;-80
2023/12/04 14:35:07;;;;;;;17.23;10.27;;;;;;;3.54;43.86;100384.22;7738086;32;37840;-80
2023/12/04 14:39:23;;;;;;;16.17;9.73;;;;;;;3.37;44.54;100384.66;7738086;32;37003;-79
2023/12/04 14:43:39;;;;;;;19.87;9.95;;;;;;;3.31;45.29;100369.34;7738062;32;40018;-80
2023/12/04 14:47:57;;;;;;;18.30;9.98;;;;;;;3.41;44.63;100368.06;7737933;32;40778;-80
2023/12/04 14:52:14;;;;;;;19.02;9.50;;;;;;;2.87;46.02;100357.34;7737642;32;37940;-80
2023/12/04 15:23:20;;;;;;;16.08;9.57;;;;;;;2.30;48.17;100378.41;7736436;32;40063;-79
2023/12/04 15:27:37;;;;;;;19.98;10.40;;;;;;;2.26;50.49;100366.37;7736016;32;37595;-78
2023/12/04 15:31:53;;;;;;;16.52;9.68;;;;;;;2.58;47.75;100342.41;7736593;32;37384;-78
2023/12/04 15:36:10;;;;;;;13.82;9.40;;;;;;;2.54;47.77;100331.25;7736483;32;39955;-78
2023/12/04 15:40:27;;;;;;;16.48;9.77;;;;;;;2.03;48.69;100326.38;7736057;32;39661;-76
2023/12/04 15:44:44;;;;;;;17.12;9.20;;;;;;;2.06;48.81;100325.97;7736088;32;38687;-77
2023/12/04 15:49:00;;;;;;;17.33;10.32;;;;;;;2.24;48.25;100325.37;7735873;32;36970;-80
2023/12/04 15:53:16;;;;;;;15.57;9.52;;;;;;;2.21;47.96;100329.31;7736088;32;40182;-77
2023/12/04 15:57:34;;;;;;;14.07;9.82;;;;;;;2.03;48.56;100334.44;7736120;32;40487;-79
2023/12/04 16:01:51;;;;;;;16.67;9.70;;;;;;;1.32;50.94;100332.88;7736276;32;37660;-78
2023/12/04 16:06:09;;;;;;;26.58;10.60;;;;;;;1.48;50.63;100348.72;7735883;32;37572;-79
2023/12/04 16:10:27;;;;;;;17.08;9.35;;;;;;;1.87;49.53;100341.84;7738712;32;39328;-79
2023/12/04 16:14:43;;;;;;;18.45;10.25;;;;;;;2.15;49.11;100343.56;7739823;32;39960;-78
2023/12/04 16:19:00;;;;;;;19.00;11.73;;;;;;;1.64;49.99;100344.03;7740144;32;38655;-80
2023/12/04 16:23:16;;;;;;;21.15;12.23;;;;;;;1.89;50.09;100330.88;7739722;32;37870;-80
2023/12/04 16:27:32;;;;;;;24.10;13.45;;;;;;;1.73;50.78;100340.12;7739541;32;39334;-80
2023/12/04 16:31:48;;;;;;;26.02;12.73;;;;;;;1.43;51.36;100337.72;7739733;32;40750;-81
2023/12/04 16:36:05;;;;;;;19.83;11.80;;;;;;;1.41;51.81;100337.06;7739472;32;37764;-81
2023/12/04 16:40:22;;;;;;;18.67;10.65;;;;;;;1.43;51.69;100345.78;7739559;32;37102;-79
2023/12/04 16:44:39;;;;;;;21.35;11.85;;;;;;;1.46;51.72;100329.25;7739543;32;39745;-80
2023/12/04 16:48:55;;;;;;;21.58;12.05;;;;;;;1.29;52.57;100327.91;7730268;32;40832;-78
2023/12/04 16:53:12;;;;;;;22.33;11.98;;;;;;;1.33;52.11;100323.81;7709922;32;37912;-79
2023/12/04 16:57:28;;;;;;;22.17;12.10;;;;;;;1.50;51.91;100313.53;7711641;32;37191;-79
2023/12/04 17:01:45;;;;;;;19.45;11.23;;;;;;;1.01;53.38;100307.28;7711730;32;39771;-79
2023/12/04 17:06:01;;;;;;;20.80;12.48;;;;;;;0.97;53.22;100313.22;7711660;32;40896;-79
2023/12/04 17:10:18;;;;;;;21.70;12.60;;;;;;;1.52;52.13;100302.59;7710095;32;37794;-79
2023/12/04 17:14:35;;;;;;;22.52;12.25;;;;;;;1.37;52.30;100313.50;7711739;32;36855;-79
2023/12/04 17:18:51;;;;;;;20.15;11.65;;;;;;;1.57;51.81;100317.12;7710780;32;39823;-78
2023/12/04 17:23:08;;;;;;;22.30;12.15;;;;;;;1.15;53.09;100307.38;7711120;32;40783;-78
2023/12/04 17:27:25;;;;;;;23.60;12.60;;;;;;;1.47;52.58;100317.47;7711201;32;37537;-79
2023/12/04 17:31:42;;;;;;;19.87;11.45;;;;;;;1.25;52.38;100315.91;7711113;32;36790;-79
2023/12/04 17:36:01;;;;;;;19.40;11.48;;;;;;;1.34;52.62;100311.19;7711452;32;39174;-79
2023/12/04 17:40:18;;;;;;;21.75;12.37;;;;;;;0.93;53.71;100307.44;7710989;32;40897;-79
2023/12/04 17:44:37;;;;;;;23.10;12.07;;;;;;;1.45;52.41;100305.25;7711248;32;38743;-79
2023/12/04 17:48:54;;;;;;;20.12;11.25;;;;;;;1.28;52.50;100305.59;7711267;32;36508;-79
2023/12/04 17:53:11;;;;;;;19.83;11.70;;;;;;;1.38;52.20;100299.88;7710802;32;38864;-79
2023/12/04 17:57:28;;;;;;;18.60;10.60;;;;;;;1.04;53.42;100293.47;7711037;32;39973;-79
2023/12/04 18:01:45;;;;;;;24.60;12.13;;;;;;;1.40;52.51;100275.50;7710560;32;38075;-79
2023/12/04 18:06:02;;;;;;;18.00;11.20;;;;;;;1.15;53.16;100293.94;7709848;32;37790;-79
2023/12/04 18:10:19;;;;;;;19.33;11.48;;;;;;;1.35;53.13;100286.84;7710781;32;39086;-79
2023/12/04 18:14:36;;;;;;;19.95;12.43;;;;;;;1.49;52.64;100280.47;7710879;32;39917;-79
2023/12/04 18:18:52;;;;;;;22.17;12.10;;;;;;;0.96;53.64;100266.75;7710779;32;38673;-80
2023/12/04 18:23:09;;;;;;;20.17;11.40;;;;;;;1.18;53.30;100262.16;7710543;32;36781;-79
2023/12/04 18:27:26;;;;;;;19.87;12.30;;;;;;;1.11;53.68;100256.75;7710696;32;40212;-79
2023/12/04 18:31:43;;;;;;;19.67;11.75;;;;;;;1.22;53.48;100246.47;7710914;32;39856;-78
2023/12/04 18:36:01;;;;;;;23.90;12.32;;;;;;;1.08;53.99;100251.75;7710374;32;38522;-79
2023/12/04 18:40:19;;;;;;;19.42;11.38;;;;;;;1.10;53.88;100241.66;7710692;32;37944;-78
2023/12/04 18:44:35;;;;;;;19.80;12.13;;;;;;;0.91;54.52;100216.37;7711265;32;39331;-78
2023/12/04 18:48:53;;;;;;;22.90;12.82;;;;;;;1.15;54.09;100218.75;7709675;32;40055;-79
2023/12/04 18:53:09;;;;;;;21.12;12.07;;;;;;;0.89;54.72;100222.94;7710886;32;37696;-79
2023/12/04 18:57:27;;;;;;;21.30;11.60;;;;;;;0.86;54.72;100217.97;7703311;32;245377;-79
2023/12/04 19:01:43;;;;;;;23.02;12.68;;;;;;;0.71;55.37;100221.59;7710866;32;39572;-79
2023/12/04 19:06:00;;;;;;;20.30;11.85;;;;;;;0.74;55.57;100234.63;7710709;32;40012;-78
2023/12/04 19:10:16;;;;;;;21.20;12.25;;;;;;;0.97;55.16;100233.53;7710655;32;37748;-79
2023/12/04 19:14:33;;;;;;;20.90;12.13;;;;;;;0.67;55.71;100247.19;7710613;32;38206;-80
2023/12/04 19:18:49;;;;;;;19.83;12.50;;;;;;;0.87;55.47;100250.00;7710422;32;39135;-80
2023/12/04 19:23:10;;;;;;;24.45;12.40;;;;;;;1.04;54.59;100250.50;7710300;32;40056;-80
2023/12/04 19:27:30;;;;;;;22.40;12.18;;;;;;;0.96;54.83;100252.53;7708747;32;37666;-80
2023/12/04 19:31:53;;;;;;;23.12;11.52;;;;;;;0.98;54.13;100245.91;7710147;32;37735;-80
2023/12/04 19:36:10;;;;;;;19.05;12.10;;;;;;;0.81;54.57;100241.88;7709927;32;40165;-80
2023/12/04 19:40:28;;;;;;;21.17;11.90;;;;;;;0.83;55.05;100231.78;7709799;32;40894;-79
2023/12/04 19:44:44;;;;;;;20.02;12.57;;;;;;;0.67;55.39;100220.34;7712210;32;37935;-79
2023/12/04 19:49:02;;;;;;;22.25;13.18;;;;;;;1.10;54.30;100206.75;7713284;32;37062;-79
2023/12/04 19:53:18;;;;;;;23.38;13.00;;;;;;;0.82;54.90;100204.13;7713042;32;40152;-79
2023/12/04 19:57:34;;;;;;;21.48;11.77;;;;;;;0.93;54.55;100197.34;7713017;32;39995;-79
2023/12/04 20:01:51;;;;;;;26.83;13.20;;;;;;;0.93;54.81;100189.28;7738481;32;36923;-79
2023/12/04 20:06:07;;;;;;;21.10;11.88;;;;;;;0.37;56.09;100212.47;7742214;32;37288;-80
2023/12/04 20:10:24;;;;;;;18.90;11.98;;;;;;;0.10;56.71;100205.25;7739633;32;39397;-79